Welcome to Northern Hawkes Bay. New Zealand.
PWS Header
      nz Flag



Hit Counter


W3C Valid W3C Valid logo


    Wairoa

Select any of the Stations below to visit their websites.










Historic Data from Weather Underground
Select the location of interest below. Wairoa is the default. Please have patience, this Data is slow to load in.
Northern Hawkes Bay Historical Data
Daily Summary for May 17, 2017 Units:  English    Metric   Both
« Previous Day
Next Day »
Daily Weekly Monthly Yearly Custom
  High: Low: Average:
Temperature: 71.2 °F 55.2 °F 62.2 °F
Dew Point: 59.5 °F 51.1 °F 55.2 °F
Humidity: 96% 60% 78%
Wind Speed: 27.3mph 0mph 6mph
Wind Gust: 56.4mph - -
Wind- - SE
Pressure: 29.9 in 29.5 in -
Precipitation: 0.25 in    
Historical Graphs
 
 
Tabular Data for May 17, 2017
Time Temperature Dew Point Pressure Wind Wind Speed Wind Gust Humidity Rainfall Rate (Hourly) solar
00:02 67.3 °F 56.8 °F 29.9 in NE 6 mph 16.8 mph 69% 0 in 81 W/m2
00:07 67.3 °F 56.8 °F 29.9 in NE 6 mph 11.4 mph 69% 0 in 97 W/m2
00:12 67.3 °F 56.8 °F 29.9 in NE 10.7 mph 14.5 mph 69% 0 in 85 W/m2
00:17 67.3 °F 56.8 °F 29.9 in ENE 9.8 mph 14.5 mph 69% 0 in 72 W/m2
00:22 67.3 °F 56.8 °F 29.9 in ENE 6.9 mph 14.5 mph 69% 0 in 74 W/m2
00:27 67.3 °F 56.8 °F 29.9 in NE 5.4 mph 14.5 mph 69% 0 in 45 W/m2
00:32 66.9 °F 56.8 °F 29.9 in NE 6.9 mph 15.9 mph 70% 0 in 17 W/m2
00:37 66.6 °F 56.5 °F 29.9 in NE 6 mph 15.9 mph 70% 0 in 14 W/m2
00:42 66.4 °F 56.7 °F 29.9 in ENE 6.9 mph 12.1 mph 71% 0 in 13 W/m2
00:47 66.2 °F 56.8 °F 29.8 in ENE 11.4 mph 15.2 mph 72% 0 in 11 W/m2
00:52 66.2 °F 56.8 °F 29.8 in ENE 9.8 mph 15.2 mph 72% 0 in 9 W/m2
00:57 65.8 °F 57.4 °F 29.8 in ENE 4.5 mph 15.2 mph 74% 0 in 6 W/m2
01:02 65.5 °F 57.4 °F 29.8 in NE 5.4 mph 12.1 mph 75% 0 in 3 W/m2
01:07 65.3 °F 57.2 °F 29.8 in NE 6.9 mph 11.4 mph 75% 0 in 2 W/m2
01:12 65.3 °F 57.2 °F 29.8 in NE 5.4 mph 13 mph 75% 0 in 1 W/m2
01:17 65.3 °F 57.2 °F 29.8 in NE 8.3 mph 15.2 mph 75% 0 in 0 W/m2
01:22 65.3 °F 57.2 °F 29.8 in NE 7.6 mph 15.2 mph 75% 0 in 0 W/m2
01:27 65.3 °F 57.2 °F 29.8 in NE 6.9 mph 13.6 mph 75% 0 in 0 W/m2
01:32 65.1 °F 57 °F 29.8 in NE 6 mph 13.6 mph 75% 0 in 0 W/m2
01:37 65.1 °F 57 °F 29.8 in NE 6 mph 9.8 mph 75% 0 in 0 W/m2
01:42 65.1 °F 57 °F 29.8 in NE 6 mph 9.8 mph 75% 0 in 0 W/m2
01:47 65.1 °F 57 °F 29.8 in NE 2.2 mph 9.8 mph 75% 0 in 0 W/m2
01:52 65.1 °F 57.4 °F 29.8 in NE 3.1 mph 9.8 mph 76% 0 in 0 W/m2
01:57 65.1 °F 57.4 °F 29.8 in NE 4.5 mph 8.3 mph 76% 0 in 0 W/m2
02:02 64.9 °F 57.2 °F 29.8 in NE 3.8 mph 7.6 mph 76% 0 in 0 W/m2
02:07 64.9 °F 57.2 °F 29.8 in NE 3.8 mph 7.6 mph 76% 0 in 0 W/m2
02:12 64.9 °F 57.2 °F 29.8 in NE 5.4 mph 7.6 mph 76% 0 in 0 W/m2
02:17 65.1 °F 57.4 °F 29.8 in NE 2.2 mph 7.6 mph 76% 0 in 0 W/m2
02:22 65.1 °F 57.4 °F 29.8 in ENE 6 mph 11.4 mph 76% 0 in 0 W/m2
02:27 65.7 °F 57.9 °F 29.8 in NNE 3.8 mph 11.4 mph 76% 0 in 0 W/m2
02:32 65.8 °F 57.7 °F 29.8 in NNE 4.5 mph 12.1 mph 75% 0 in 0 W/m2
02:37 65.8 °F 57.7 °F 29.8 in NNE 6.9 mph 12.1 mph 75% 0 in 0 W/m2
02:42 66 °F 57.9 °F 29.8 in NNE 6 mph 13.6 mph 75% 0 in 0 W/m2
02:47 66.2 °F 57.7 °F 29.8 in NNE 5.4 mph 15.2 mph 74% 0 in 0 W/m2
02:52 66.4 °F 57.6 °F 29.8 in North 9.2 mph 17.4 mph 73% 0 in 0 W/m2
02:57 66.6 °F 57.4 °F 29.8 in North 6.9 mph 17.4 mph 72% 0 in 0 W/m2
03:02 66.6 °F 57.4 °F 29.8 in NNE 10.7 mph 17.4 mph 72% 0 in 0 W/m2
03:03 66.6 °F 57.4 °F 29.8 in NNE 10.7 mph 19 mph 72% 0 in 0 W/m2
03:08 66.6 °F 57.4 °F 29.8 in North 9.2 mph 19.7 mph 72% 0 in 0 W/m2
03:13 66.4 °F 57.6 °F 29.8 in North 7.6 mph 19.7 mph 73% 0 in 0 W/m2
03:18 66.4 °F 57.6 °F 29.8 in NNW 7.6 mph 17.4 mph 73% 0 in 0 W/m2
03:23 65.8 °F 57.7 °F 29.8 in NW 7.6 mph 17.4 mph 75% 0 in 0 W/m2
03:28 64.4 °F 57.7 °F 29.9 in WNW 4.5 mph 12.1 mph 79% 0 in 0 W/m2
03:33 63.1 °F 57.9 °F 29.9 in WNW 6.9 mph 12.1 mph 83% 0.01 in 0 W/m2
03:38 62.2 °F 57.9 °F 29.9 in WNW 6 mph 10.7 mph 86% 0.02 in 0 W/m2
03:43 61.7 °F 58.5 °F 29.9 in NW 2.2 mph 9.2 mph 89% 0.04 in 0 W/m2
03:48 61.3 °F 59 °F 29.9 in NNW 3.1 mph 7.6 mph 92% 0.04 in 0 W/m2
03:53 61.2 °F 58.8 °F 29.9 in NNE 1.6 mph 6.9 mph 92% 0.04 in 0 W/m2
03:58 61 °F 59 °F 29.9 in NNE 3.1 mph 6.9 mph 93% 0.04 in 0 W/m2
04:03 60.8 °F 59.2 °F 29.9 in North 2.2 mph 5.4 mph 94% 0.04 in 0 W/m2
04:08 60.8 °F 59.2 °F 29.9 in Calm   3.8 mph 94% 0.04 in 0 W/m2
04:13 60.8 °F 59.2 °F 29.8 in NNE 0.7 mph 3.8 mph 94% 0.04 in 0 W/m2
04:18 60.6 °F 59.5 °F 29.8 in Calm   3.8 mph 96% 0.04 in 0 W/m2
04:23 60.4 °F 59.4 °F 29.8 in Calm   3.8 mph 96% 0.04 in 0 W/m2
04:28 60.3 °F 59.2 °F 29.8 in SSW 3.8 mph 5.4 mph 96% 0.04 in 0 W/m2
04:33 60.1 °F 59 °F 29.8 in SSW 3.8 mph 5.4 mph 96% 0.02 in 0 W/m2
04:38 60.1 °F 59 °F 29.8 in South 2.2 mph 5.4 mph 96% 0.01 in 0 W/m2
04:43 59.9 °F 58.8 °F 29.8 in South 3.8 mph 6 mph 96% 0 in 0 W/m2
04:49 59.9 °F 58.8 °F 29.8 in SE 3.8 mph 6 mph 96% 0 in 0 W/m2
04:54 60.8 °F 59.2 °F 29.8 in North 0.7 mph 6 mph 94% 0 in 0 W/m2
04:59 61 °F 58.6 °F 29.8 in NE 1.6 mph 6 mph 92% 0 in 0 W/m2
05:04 61 °F 57.7 °F 29.8 in Calm   3.1 mph 89% 0 in 0 W/m2
05:09 60.8 °F 56.8 °F 29.8 in Calm   3.1 mph 87% 0 in 0 W/m2
05:14 60.6 °F 56.7 °F 29.8 in NNE 2.2 mph 3.8 mph 87% 0 in 0 W/m2
05:19 61.2 °F 56.3 °F 29.8 in North 1.6 mph 3.8 mph 84% 0 in 0 W/m2
05:24 61 °F 55.8 °F 29.8 in NNW 0.7 mph 3.8 mph 83% 0 in 0 W/m2
05:29 60.8 °F 55.6 °F 29.8 in West 0.7 mph 2.2 mph 83% 0 in 0 W/m2
05:34 60.6 °F 56.1 °F 29.8 in West 3.1 mph 4.5 mph 85% 0 in 0 W/m2
05:36 61 °F 56.1 °F 29.8 in WNW 1.6 mph 4.5 mph 84% 0 in 0 W/m2
05:41 61.2 °F 55.6 °F 29.8 in Calm   4.5 mph 82% 0 in 0 W/m2
05:46 60.8 °F 55.2 °F 29.8 in Calm   3.1 mph 82% 0 in 0 W/m2
05:51 59.9 °F 54.7 °F 29.8 in Calm   2.2 mph 83% 0 in 0 W/m2
05:56 59.5 °F 54.7 °F 29.8 in NE 2.2 mph 3.1 mph 84% 0 in 0 W/m2
06:01 59.7 °F 55.2 °F 29.8 in NE 0.7 mph 3.8 mph 85% 0 in 0 W/m2
06:06 59 °F 54.5 °F 29.8 in NNE 1.6 mph 3.8 mph 85% 0 in 0 W/m2
06:11 58.3 °F 54.3 °F 29.8 in North 2.2 mph 4.5 mph 87% 0 in 0 W/m2
06:16 58.3 °F 55 °F 29.8 in North 2.2 mph 6 mph 89% 0 in 0 W/m2
06:21 58.5 °F 55.6 °F 29.8 in NNE 2.2 mph 6 mph 90% 0 in 0 W/m2
06:26 58.6 °F 55.8 °F 29.8 in NNE 2.2 mph 4.5 mph 90% 0 in 0 W/m2
06:31 58.1 °F 54.9 °F 29.8 in North 1.6 mph 3.8 mph 89% 0 in 0 W/m2
06:36 58.3 °F 55.4 °F 29.8 in North 3.1 mph 4.5 mph 90% 0 in 0 W/m2
06:41 58.5 °F 55.6 °F 29.8 in North 2.2 mph 5.4 mph 90% 0 in 0 W/m2
06:46 58.5 °F 55.6 °F 29.8 in NNE 3.8 mph 5.4 mph 90% 0 in 0 W/m2
06:51 58.5 °F 55.6 °F 29.8 in North 3.8 mph 5.4 mph 90% 0 in 0 W/m2
06:56 58.5 °F 55.2 °F 29.8 in North 3.8 mph 5.4 mph 89% 0 in 0 W/m2
07:01 58.6 °F 55.4 °F 29.8 in NNW 2.2 mph 5.4 mph 89% 0 in 0 W/m2
07:06 58.8 °F 55.2 °F 29.8 in NNW 2.2 mph 5.4 mph 88% 0 in 0 W/m2
07:11 58.8 °F 55.2 °F 29.8 in NNW 3.1 mph 5.4 mph 88% 0 in 0 W/m2
07:16 59 °F 54.9 °F 29.8 in NNW 3.8 mph 5.4 mph 86% 0 in 0 W/m2
07:21 59.2 °F 54.7 °F 29.8 in NNW 2.2 mph 5.4 mph 85% 0 in 0 W/m2
07:26 58.8 °F 54.7 °F 29.8 in NNW 2.2 mph 4.5 mph 86% 0 in 0 W/m2
07:31 58.5 °F 54.3 °F 29.8 in NNW 2.2 mph 3.8 mph 86% 0 in 0 W/m2
07:36 57.9 °F 53.8 °F 29.8 in NW 1.6 mph 3.1 mph 86% 0 in 0 W/m2
07:41 57.7 °F 54 °F 29.8 in NW 1.6 mph 3.1 mph 87% 0 in 0 W/m2
07:46 57.7 °F 54.1 °F 29.8 in NW 0.7 mph 3.8 mph 88% 0 in 0 W/m2
07:51 57.7 °F 54 °F 29.8 in NW 0.7 mph 3.8 mph 87% 0 in 0 W/m2
08:07 57.2 °F 53.1 °F 29.8 in Calm   0.7 mph 86% 0 in 0 W/m2
08:12 57.2 °F 53.4 °F 29.8 in Calm     87% 0 in 0 W/m2
08:17 57.2 °F 53.4 °F 29.8 in NW 2.2 mph 3.1 mph 87% 0 in 0 W/m2
08:22 56.8 °F 53.2 °F 29.8 in NNW 0.7 mph 3.1 mph 88% 0 in 0 W/m2
08:27 56.5 °F 53.1 °F 29.8 in NW 0.7 mph 3.1 mph 88% 0 in 0 W/m2
08:32 56.3 °F 52.9 °F 29.8 in Calm   1.6 mph 88% 0 in 0 W/m2
08:37 55.9 °F 52.3 °F 29.8 in Calm   1.6 mph 88% 0 in 0 W/m2
08:42 55.4 °F 52 °F 29.8 in Calm     88% 0 in 0 W/m2
08:47 55.2 °F 52 °F 29.8 in Calm     89% 0 in 0 W/m2
08:52 55.2 °F 52.3 °F 29.8 in Calm     90% 0 in 0 W/m2
08:57 55.2 °F 52.3 °F 29.8 in East 0.7 mph 2.2 mph 90% 0 in 0 W/m2
09:02 55.6 °F 52.7 °F 29.8 in East 1.6 mph 3.1 mph 90% 0 in 0 W/m2
09:07 56.5 °F 53.6 °F 29.8 in East 2.2 mph 3.8 mph 90% 0 in 0 W/m2
09:12 57.9 °F 54.3 °F 29.8 in East 1.6 mph 5.4 mph 88% 0 in 0 W/m2
09:17 58.6 °F 54.5 °F 29.8 in Calm   5.4 mph 86% 0 in 0 W/m2
09:22 58.6 °F 54.1 °F 29.8 in Calm   3.1 mph 85% 0 in 0 W/m2
09:27 58.3 °F 53.4 °F 29.8 in Calm   3.1 mph 84% 0 in 0 W/m2
09:32 57.7 °F 52.9 °F 29.7 in ENE 0.7 mph 2.2 mph 84% 0 in 0 W/m2
09:37 57.2 °F 52.3 °F 29.8 in North 1.6 mph 4.5 mph 84% 0 in 0 W/m2
09:42 56.5 °F 52.3 °F 29.7 in North 1.6 mph 4.5 mph 86% 0 in 0 W/m2
09:47 56.3 °F 52.5 °F 29.7 in NNW 0.7 mph 3.1 mph 87% 0 in 0 W/m2
09:52 55.9 °F 52.2 °F 29.7 in Calm   3.1 mph 87% 0 in 0 W/m2
09:57 56.8 °F 53.2 °F 29.7 in ESE 3.1 mph 7.6 mph 88% 0 in 0 W/m2
10:02 58.8 °F 54.7 °F 29.7 in Calm   7.6 mph 86% 0 in 0 W/m2
10:07 59.5 °F 54.3 °F 29.7 in East 0.7 mph 5.4 mph 83% 0 in 0 W/m2
10:12 59.7 °F 54.1 °F 29.7 in East 6 mph 9.2 mph 82% 0 in 0 W/m2
10:17 60.6 °F 54.1 °F 29.7 in East 3.1 mph 9.2 mph 79% 0 in 0 W/m2
10:22 60.8 °F 53.6 °F 29.7 in ENE 1.6 mph 9.2 mph 77% 0 in 0 W/m2
10:27 59.9 °F 53.4 °F 29.7 in NE 2.2 mph 6.9 mph 79% 0 in 0 W/m2
10:32 59.4 °F 52.9 °F 29.7 in NNE 0.7 mph 6.9 mph 79% 0 in 0 W/m2
10:37 59 °F 53.2 °F 29.7 in North 2.2 mph 3.8 mph 81% 0 in 0 W/m2
10:42 58.1 °F 52.5 °F 29.7 in Calm   3.8 mph 82% 0 in 0 W/m2
10:47 57.9 °F 53.1 °F 29.7 in NNW 1.6 mph 4.5 mph 84% 0 in 0 W/m2
10:52 58.5 °F 53.8 °F 29.7 in Calm   4.5 mph 84% 0 in 0 W/m2
10:57 58.1 °F 53.1 °F 29.7 in Calm   3.1 mph 83% 0 in 0 W/m2
11:02 57.7 °F 52.9 °F 29.7 in North 1.6 mph 2.2 mph 84% 0 in 0 W/m2
11:07 56.8 °F 52.3 °F 29.7 in NNW 1.6 mph 3.8 mph 85% 0 in 0 W/m2
11:12 56.5 °F 52.3 °F 29.7 in NNW 1.6 mph 3.8 mph 86% 0 in 0 W/m2
11:17 56.5 °F 52.7 °F 29.7 in North 2.2 mph 4.5 mph 87% 0 in 0 W/m2
11:22 56.3 °F 52.5 °F 29.7 in North 1.6 mph 4.5 mph 87% 0 in 0 W/m2
11:27 56.5 °F 53.1 °F 29.7 in NNW 0.7 mph 4.5 mph 88% 0 in 0 W/m2
11:32 56.7 °F 53.2 °F 29.7 in NNW 0.7 mph 3.1 mph 88% 0 in 0 W/m2
11:37 56.8 °F 53.1 °F 29.7 in North 2.2 mph 3.1 mph 87% 0 in 0 W/m2
11:42 56.8 °F 53.1 °F 29.7 in NNW 0.7 mph 3.1 mph 87% 0 in 0 W/m2
11:47 57 °F 53.2 °F 29.7 in NNW 3.8 mph 6.9 mph 87% 0 in 0 W/m2
11:52 58.1 °F 53.6 °F 29.7 in NNE 0.7 mph 6.9 mph 85% 0 in 0 W/m2
11:57 57.9 °F 53.1 °F 29.7 in NNE 1.6 mph 6.9 mph 84% 0 in 0 W/m2
12:02 57.4 °F 52.5 °F 29.7 in NW 2.2 mph 3.8 mph 84% 0 in 0 W/m2
12:07 57.4 °F 52.9 °F 29.7 in NNW 1.6 mph 3.8 mph 85% 0 in 0 W/m2
12:12 57 °F 52.9 °F 29.7 in NNW 2.2 mph 3.8 mph 86% 0 in 0 W/m2
12:17 56.7 °F 52.5 °F 29.7 in NNW 1.6 mph 3.8 mph 86% 0 in 0 W/m2
12:22 57 °F 53.2 °F 29.7 in North 1.6 mph 5.4 mph 87% 0 in 0 W/m2
12:27 57.4 °F 53.2 °F 29.7 in NNE 1.6 mph 5.4 mph 86% 0 in 0 W/m2
12:32 57.4 °F 52.9 °F 29.7 in NNE 1.6 mph 5.4 mph 85% 0 in 0 W/m2
12:37 58.1 °F 53.6 °F 29.7 in NNE 3.1 mph 5.4 mph 85% 0 in 0 W/m2
12:42 58.8 °F 54 °F 29.7 in NNE 3.1 mph 5.4 mph 84% 0 in 0 W/m2
12:47 59.4 °F 53.2 °F 29.7 in North 3.1 mph 6 mph 80% 0 in 0 W/m2
12:52 59.9 °F 53.4 °F 29.7 in North 3.8 mph 7.6 mph 79% 0.01 in 0 W/m2
12:57 60.6 °F 53.4 °F 29.7 in NNE 5.4 mph 8.3 mph 77% 0.01 in 0 W/m2
13:02 61.5 °F 53.2 °F 29.7 in NNE 4.5 mph 8.3 mph 74% 0.01 in 0 W/m2
13:07 61.7 °F 53.2 °F 29.7 in North 4.5 mph 7.6 mph 74% 0.01 in 0 W/m2
13:12 62.4 °F 53.8 °F 29.7 in North 4.5 mph 12.1 mph 73% 0.01 in 0 W/m2
13:17 63 °F 53.4 °F 29.7 in North 6 mph 12.1 mph 71% 0.01 in 0 W/m2
13:22 63.3 °F 53.8 °F 29.7 in North 6.9 mph 11.4 mph 71% 0.01 in 0 W/m2
13:27 63.7 °F 53.8 °F 29.7 in North 3.1 mph 13 mph 70% 0.01 in 0 W/m2
13:32 63.1 °F 53.6 °F 29.6 in North 3.8 mph 13 mph 71% 0.01 in 0 W/m2
13:37 63.1 °F 53.6 °F 29.6 in North 7.6 mph 12.1 mph 71% 0.01 in 0 W/m2
13:42 63.5 °F 54 °F 29.6 in North 6 mph 12.1 mph 71% 0.01 in 0 W/m2
13:47 63.9 °F 54 °F 29.6 in North 10.7 mph 13 mph 70% 0.01 in 0 W/m2
13:52 64 °F 54.1 °F 29.6 in North 5.4 mph 13 mph 70% 0 in 0 W/m2
13:57 64 °F 54.1 °F 29.6 in North 6.9 mph 15.2 mph 70% 0 in 0 W/m2
14:02 64 °F 53.8 °F 29.6 in NNE 8.3 mph 15.2 mph 69% 0 in 0 W/m2
14:07 64.2 °F 54 °F 29.6 in NNE 4.5 mph 14.5 mph 69% 0 in 0 W/m2
14:12 64 °F 53.8 °F 29.6 in North 3.8 mph 13 mph 69% 0 in 0 W/m2
14:17 63.9 °F 53.4 °F 29.6 in North 4.5 mph 8.3 mph 69% 0 in 0 W/m2
14:22 63.9 °F 53.4 °F 29.6 in North 3.8 mph 11.4 mph 69% 0 in 0 W/m2
14:27 63.9 °F 53.4 °F 29.6 in North 6 mph 11.4 mph 69% 0 in 0 W/m2
14:32 63.9 °F 53.4 °F 29.6 in NNE 3.8 mph 9.2 mph 69% 0 in 0 W/m2
14:37 63.7 °F 53.8 °F 29.6 in NNE 4.5 mph 9.2 mph 70% 0 in 0 W/m2
14:42 63.7 °F 53.8 °F 29.6 in NNE 5.4 mph 9.8 mph 70% 0 in 0 W/m2
14:47 63.7 °F 53.8 °F 29.6 in NNE 4.5 mph 9.8 mph 70% 0 in 0 W/m2
14:52 63.5 °F 53.6 °F 29.6 in NNE 2.2 mph 8.3 mph 70% 0 in 0 W/m2
14:57 63.5 °F 54 °F 29.6 in NNE 3.8 mph 8.3 mph 71% 0 in 0 W/m2
15:02 63.3 °F 53.8 °F 29.6 in NNE 2.2 mph 7.6 mph 71% 0 in 0 W/m2
15:07 63.1 °F 53.6 °F 29.6 in NE 0.7 mph 8.3 mph 71% 0 in 0 W/m2
15:12 63 °F 53.4 °F 29.6 in NE 2.2 mph 8.3 mph 71% 0 in 1 W/m2
15:17 63 °F 53.8 °F 29.6 in NNE 3.8 mph 8.3 mph 72% 0 in 4 W/m2
15:22 63.1 °F 54 °F 29.6 in NE 3.8 mph 8.3 mph 72% 0 in 6 W/m2
15:27 63.5 °F 54 °F 29.6 in NE 4.5 mph 9.2 mph 71% 0 in 24 W/m2
15:32 64 °F 54.5 °F 29.6 in North 5.4 mph 9.2 mph 71% 0 in 9 W/m2
15:37 63.9 °F 54.3 °F 29.6 in NNE 4.5 mph 9.2 mph 71% 0 in 13 W/m2
15:42 63.7 °F 54.1 °F 29.6 in NNE 1.6 mph 9.2 mph 71% 0 in 18 W/m2
15:47 63.9 °F 54.7 °F 29.6 in NNE 1.6 mph 9.2 mph 72% 0 in 21 W/m2
15:52 63.7 °F 54.5 °F 29.6 in NNE 4.5 mph 9.2 mph 72% 0 in 24 W/m2
15:57 63.7 °F 54.5 °F 29.6 in NNE 5.4 mph 8.3 mph 72% 0 in 25 W/m2
16:03 63.7 °F 54.9 °F 29.6 in NNE 3.1 mph 9.2 mph 73% 0 in 26 W/m2
16:08 63.5 °F 54.7 °F 29.6 in North 4.5 mph 13.6 mph 73% 0 in 27 W/m2
16:13 63.5 °F 55 °F 29.6 in NNE 9.8 mph 13.6 mph 74% 0 in 32 W/m2
16:18 63.9 °F 55.4 °F 29.6 in NNE 6 mph 17.4 mph 74% 0 in 39 W/m2
16:23 63.9 °F 55.4 °F 29.6 in North 6.9 mph 17.4 mph 74% 0 in 45 W/m2
16:28 63.9 °F 55.4 °F 29.6 in North 4.5 mph 12.1 mph 74% 0 in 49 W/m2
16:33 63.9 °F 55.4 °F 29.6 in North 6 mph 12.1 mph 74% 0 in 52 W/m2
16:38 63.7 °F 55.2 °F 29.6 in NNE 9.2 mph 18.3 mph 74% 0 in 54 W/m2
16:43 63.9 °F 55.4 °F 29.6 in NNE 7.6 mph 18.3 mph 74% 0 in 57 W/m2
16:48 63.9 °F 55.8 °F 29.6 in North 6 mph 18.3 mph 75% 0 in 58 W/m2
16:53 64 °F 55.6 °F 29.6 in North 6.9 mph 13.6 mph 74% 0 in 66 W/m2
16:58 64.2 °F 55.8 °F 29.6 in North 4.5 mph 20.6 mph 74% 0 in 72 W/m2
17:03 64.4 °F 56.3 °F 29.6 in NNE 4.5 mph 20.6 mph 75% 0 in 73 W/m2
17:08 64.6 °F 56.1 °F 29.6 in NNE 6.9 mph 11.4 mph 74% 0 in 79 W/m2
17:13 64.9 °F 56.5 °F 29.6 in NNE 4.5 mph 13.6 mph 74% 0 in 106 W/m2
17:18 65.1 °F 56.3 °F 29.6 in NNE 7.6 mph 13.6 mph 73% 0 in 86 W/m2
17:23 65.1 °F 56.3 °F 29.6 in North 4.5 mph 13 mph 73% 0 in 88 W/m2
17:28 65.3 °F 56.5 °F 29.6 in North 9.8 mph 13.6 mph 73% 0 in 91 W/m2
17:33 65.5 °F 56.7 °F 29.6 in North 12.1 mph 15.2 mph 73% 0 in 94 W/m2
17:38 65.7 °F 56.5 °F 29.6 in North 9.2 mph 16.8 mph 72% 0 in 99 W/m2
17:43 66 °F 56.8 °F 29.5 in North 9.2 mph 19 mph 72% 0 in 105 W/m2
17:48 66.2 °F 56.1 °F 29.5 in North 10.7 mph 19 mph 70% 0 in 120 W/m2
17:53 66.9 °F 56.5 °F 29.5 in North 8.3 mph 17.4 mph 69% 0 in 133 W/m2
17:58 68.2 °F 56.8 °F 29.5 in North 7.6 mph 15.9 mph 67% 0 in 134 W/m2
18:03 68.5 °F 56.8 °F 29.5 in NNE 9.2 mph 17.4 mph 66% 0 in 154 W/m2
18:08 69.3 °F 57 °F 29.5 in NNE 8.3 mph 17.4 mph 65% 0 in 175 W/m2
18:13 69.8 °F 57 °F 29.5 in NNE 4.5 mph 13.6 mph 64% 0 in 185 W/m2
18:18 70.2 °F 56.7 °F 29.5 in NNE 7.6 mph 15.2 mph 62% 0 in 183 W/m2
18:23 69.8 °F 56.7 °F 29.5 in NNE 6 mph 15.2 mph 63% 0 in 176 W/m2
18:28 68.9 °F 56.7 °F 29.5 in NNE 6.9 mph 16.8 mph 65% 0 in 178 W/m2
18:34 68.5 °F 56.3 °F 29.5 in North 15.2 mph 18.3 mph 65% 0 in 177 W/m2
18:40 68.5 °F 56.3 °F 29.5 in North 7.6 mph 21.3 mph 65% 0 in 176 W/m2
18:45 68.5 °F 56.8 °F 29.5 in North 6.9 mph 21.3 mph 66% 0 in 171 W/m2
18:51 68.5 °F 56.8 °F 29.5 in North 8.3 mph 15.2 mph 66% 0 in 173 W/m2
18:56 68.4 °F 56.7 °F 29.5 in North 9.8 mph 17.4 mph 66% 0 in 170 W/m2
19:00 68.4 °F 56.7 °F 29.5 in North 9.8 mph 17.4 mph 66% 0 in 162 W/m2
19:05 68.4 °F 57 °F 29.5 in NNE 9.2 mph 13.6 mph 67% 0 in 158 W/m2
19:06 68.4 °F 56.7 °F 29.5 in NNE 9.2 mph 13.6 mph 66% 0 in 156 W/m2
19:11 68.2 °F 56.8 °F 29.5 in NNE 9.2 mph 14.5 mph 67% 0 in 147 W/m2
19:16 68.2 °F 56.8 °F 29.5 in NNE 12.1 mph 17.4 mph 67% 0 in 150 W/m2
19:21 68 °F 56.7 °F 29.5 in North 5.4 mph 17.4 mph 67% 0 in 157 W/m2
19:26 68.2 °F 57.2 °F 29.5 in North 6.9 mph 15.2 mph 68% 0 in 170 W/m2
19:31 68.2 °F 56.8 °F 29.5 in North 5.4 mph 19 mph 67% 0 in 168 W/m2
19:36 68.4 °F 57 °F 29.5 in North 7.6 mph 19 mph 67% 0 in 177 W/m2
19:41 68.5 °F 57.2 °F 29.5 in NNW 8.3 mph 15.9 mph 67% 0 in 187 W/m2
19:46 68.7 °F 57.4 °F 29.5 in NNW 9.2 mph 16.8 mph 67% 0 in 205 W/m2
19:51 69.1 °F 57.7 °F 29.5 in North 9.8 mph 17.4 mph 67% 0 in 205 W/m2
19:56 69.6 °F 57.7 °F 29.5 in North 7.6 mph 17.4 mph 66% 0 in 244 W/m2
20:01 69.6 °F 57.7 °F 29.5 in North 11.4 mph 16.8 mph 66% 0 in 172 W/m2
20:06 69.4 °F 57.2 °F 29.5 in North 9.8 mph 18.3 mph 65% 0 in 148 W/m2
20:11 69.3 °F 57.4 °F 29.5 in NNW 7.6 mph 18.3 mph 66% 0 in 175 W/m2
20:16 69.3 °F 57.4 °F 29.5 in NNW 9.8 mph 18.3 mph 66% 0 in 139 W/m2
20:21 69.4 °F 57.6 °F 29.5 in North 5.4 mph 18.3 mph 66% 0 in 140 W/m2
20:26 69.6 °F 57.7 °F 29.5 in North 9.8 mph 16.8 mph 66% 0 in 153 W/m2
20:31 69.6 °F 57.7 °F 29.5 in North 5.4 mph 13 mph 66% 0 in 170 W/m2
20:36 70 °F 56.8 °F 29.5 in North 6.9 mph 14.5 mph 63% 0 in 184 W/m2
20:41 70.5 °F 56.8 °F 29.5 in NNW 10.7 mph 21.3 mph 62% 0 in 208 W/m2
20:46 70.7 °F 57.6 °F 29.5 in NNW 8.3 mph 21.3 mph 63% 0 in 161 W/m2
20:51 70.5 °F 57.4 °F 29.5 in NNW 12.1 mph 16.8 mph 63% 0 in 178 W/m2
20:56 70.9 °F 57.7 °F 29.5 in NNW 6 mph 16.8 mph 63% 0 in 190 W/m2
21:01 71.2 °F 57.6 °F 29.5 in NW 9.8 mph 19 mph 62% 0 in 217 W/m2
21:06 71.2 °F 56.7 °F 29.5 in NW 7.6 mph 19.7 mph 60% 0 in 281 W/m2
21:11 67.8 °F 55.2 °F 29.5 in West 21.3 mph 56.4 mph 64% 0.18 in 79 W/m2
21:16 58.8 °F 54.3 °F 29.6 in WSW 18.3 mph 56.4 mph 85% 0.22 in 128 W/m2
21:19 58.3 °F 54.3 °F 29.6 in WSW 22.8 mph 56.4 mph 87% 0.24 in 139 W/m2
21:25 58.8 °F 55.6 °F 29.6 in WSW 19.7 mph 39.6 mph 89% 0.24 in 214 W/m2
21:30 59.5 °F 55.8 °F 29.6 in SW 27.3 mph 39.6 mph 87% 0.24 in 226 W/m2
21:35 59.2 °F 54.7 °F 29.6 in WSW 18.3 mph 37.4 mph 85% 0.24 in 215 W/m2
21:40 59.9 °F 55 °F 29.6 in WSW 21.3 mph 34.2 mph 84% 0.24 in 220 W/m2
21:45 59.7 °F 54.1 °F 29.6 in WSW 15.2 mph 38.7 mph 82% 0.24 in 204 W/m2
21:50 59.9 °F 54.1 °F 29.6 in West 15.9 mph 38.7 mph 81% 0.24 in 203 W/m2
21:55 59.2 °F 53.1 °F 29.6 in West 22.8 mph 38.7 mph 80% 0.24 in 204 W/m2
22:00 59 °F 53.2 °F 29.6 in SW 19.7 mph 30.4 mph 81% 0.24 in 182 W/m2
22:05 59 °F 52.9 °F 29.6 in SW 22.1 mph 36.5 mph 80% 0.24 in 206 W/m2
22:10 59 °F 52.9 °F 29.6 in WSW 18.3 mph 36.5 mph 80% 0.06 in 173 W/m2
22:15 58.6 °F 52.5 °F 29.6 in WSW 18.3 mph 32.7 mph 80% 0.01 in 192 W/m2
22:20 59 °F 52.5 °F 29.6 in WSW 19 mph 32.7 mph 79% 0 in 197 W/m2
22:25 58.8 °F 52.3 °F 29.6 in SW 22.1 mph 31.1 mph 79% 0 in 138 W/m2
22:30 58.6 °F 52.5 °F 29.6 in SW 14.5 mph 28.9 mph 80% 0 in 140 W/m2
22:35 58.6 °F 52.5 °F 29.6 in WSW 22.8 mph 29.8 mph 80% 0 in 135 W/m2
22:40 58.8 °F 52.3 °F 29.6 in WSW 17.4 mph 29.8 mph 79% 0 in 273 W/m2
22:45 59.2 °F 52 °F 29.6 in SW 19.7 mph 29.8 mph 77% 0 in 309 W/m2
22:50 59.4 °F 51.8 °F 29.6 in SW 16.8 mph 33.6 mph 76% 0 in 182 W/m2
22:55 59 °F 51.8 °F 29.6 in WSW 19.7 mph 33.6 mph 77% 0 in 171 W/m2
22:59 59 °F 51.8 °F 29.6 in WSW 17.4 mph 30.4 mph 77% 0 in 261 W/m2
23:04 59.2 °F 51.6 °F 29.6 in SW 17.4 mph 31.1 mph 76% 0 in 81 W/m2
23:09 58.5 °F 51.6 °F 29.6 in SW 13 mph 31.1 mph 78% 0 in 100 W/m2
23:15 58.3 °F 51.8 °F 29.6 in SW 14.5 mph 22.1 mph 79% 0 in 254 W/m2
23:20 58.5 °F 51.3 °F 29.6 in SW 11.4 mph 25.9 mph 77% 0 in 154 W/m2
23:25 58.8 °F 51.6 °F 29.6 in SW 12.1 mph 25.9 mph 77% 0 in 179 W/m2
23:30 59 °F 51.4 °F 29.6 in WSW 14.5 mph 24.4 mph 76% 0 in 133 W/m2
23:35 59.2 °F 51.6 °F 29.6 in WSW 10.7 mph 24.4 mph 76% 0 in 175 W/m2
23:40 59.4 °F 51.8 °F 29.6 in WSW 15.2 mph 23.5 mph 76% 0 in 159 W/m2
23:45 59.5 °F 51.6 °F 29.6 in WSW 17.4 mph 24.4 mph 75% 0 in 131 W/m2
23:50 59 °F 51.1 °F 29.6 in WSW 9.8 mph 25.9 mph 75% 0 in 68 W/m2
23:55 58.1 °F 51.3 °F 29.6 in SW 10.7 mph 25.9 mph 78% 0 in 43 W/m2
Northern Hawkes Bay. New Zealand Historic Data
Compliments of Weather Underground - 2 mb